createdAt,value
2023-02-01T00:00:49.025Z,0.60
2023-02-01T00:01:49.907Z,0.70
2023-02-01T00:02:50.854Z,0.70
2023-02-01T00:03:51.701Z,0.80
2023-02-01T00:04:52.574Z,0.70
2023-02-01T00:05:53.449Z,0.70
2023-02-01T00:06:54.359Z,0.70
2023-02-01T00:07:55.216Z,0.60
2023-02-01T00:08:56.095Z,0.70
2023-02-01T00:09:56.993Z,0.60
2023-02-01T00:10:57.852Z,0.50
2023-02-01T00:11:58.734Z,0.40
2023-02-01T00:12:59.621Z,0.50
2023-02-01T00:14:00.535Z,0.50
2023-02-01T00:15:01.403Z,0.50
2023-02-01T00:16:02.332Z,0.70
2023-02-01T00:17:03.164Z,0.40
2023-02-01T00:18:04.045Z,0.50
2023-02-01T00:19:04.930Z,0.50
2023-02-01T00:20:05.847Z,0.90
2023-02-01T00:21:06.683Z,0.80
2023-02-01T00:22:07.584Z,0.80
2023-02-01T00:23:08.438Z,0.90
2023-02-01T00:24:09.331Z,0.70
2023-02-01T00:25:10.208Z,0.90
2023-02-01T00:26:11.085Z,0.70
2023-02-01T00:27:11.969Z,0.70
2023-02-01T00:28:12.860Z,0.60
2023-02-01T00:29:13.748Z,0.40
2023-02-01T00:30:14.637Z,0.60
2023-02-01T00:31:15.658Z,0.70
2023-02-01T00:32:16.027Z,0.90
2023-02-01T00:33:16.909Z,0.70
2023-02-01T00:34:17.831Z,0.70
2023-02-01T00:35:18.677Z,0.70
2023-02-01T00:36:19.551Z,0.90
2023-02-01T00:37:20.456Z,0.80
2023-02-01T00:38:21.308Z,0.70
2023-02-01T00:39:22.198Z,0.70
2023-02-01T00:40:23.516Z,0.70
2023-02-01T00:41:23.574Z,0.70
2023-02-01T00:42:24.478Z,0.50
2023-02-01T00:43:25.348Z,0.60
2023-02-01T00:44:26.224Z,0.60
2023-02-01T00:45:27.107Z,0.60
2023-02-01T00:46:28.040Z,0.60
2023-02-01T00:47:28.885Z,0.90
2023-02-01T00:48:29.768Z,0.60
2023-02-01T00:49:30.658Z,0.40
2023-02-01T00:50:31.526Z,0.60
2023-02-01T00:51:32.423Z,0.50
2023-02-01T00:52:33.326Z,0.50
2023-02-01T00:53:34.193Z,0.50
2023-02-01T00:54:35.072Z,0.50
2023-02-01T00:55:35.959Z,0.50
2023-02-01T00:56:36.843Z,0.40
2023-02-01T00:57:37.716Z,0.60
2023-02-01T00:58:38.603Z,0.50
2023-02-01T00:59:39.498Z,0.50
2023-02-01T01:00:40.429Z,0.40
2023-02-01T01:01:41.347Z,0.60
2023-02-01T01:02:42.194Z,0.60
2023-02-01T01:03:43.074Z,0.40
2023-02-01T01:04:43.969Z,0.50
2023-02-01T01:05:44.851Z,0.40
2023-02-01T01:06:45.729Z,0.50
2023-02-01T01:07:46.633Z,0.50
2023-02-01T01:08:47.483Z,0.60
2023-02-01T01:09:48.380Z,0.60
2023-02-01T01:10:49.257Z,0.70
2023-02-01T01:11:50.139Z,0.80
2023-02-01T01:12:51.027Z,0.60
2023-02-01T01:13:51.905Z,0.50
2023-02-01T01:14:52.792Z,0.40
2023-02-01T01:15:53.676Z,0.60
2023-02-01T01:16:54.550Z,0.60
2023-02-01T01:17:55.437Z,0.60
2023-02-01T01:18:56.321Z,0.60
2023-02-01T01:19:59.669Z,0.50
2023-02-01T01:20:57.774Z,0.50
2023-02-01T01:21:58.652Z,0.50
2023-02-01T01:22:59.540Z,0.50
2023-02-01T01:24:00.458Z,0.50
2023-02-01T01:25:01.307Z,0.50
2023-02-01T01:26:02.189Z,0.50
2023-02-01T01:27:03.071Z,0.60
2023-02-01T01:28:03.952Z,0.50
2023-02-01T01:29:04.834Z,0.50
2023-02-01T01:30:05.731Z,0.40
2023-02-01T01:31:06.842Z,0.50
2023-02-01T01:32:07.228Z,0.50
2023-02-01T01:33:08.117Z,0.40
2023-02-01T01:34:08.991Z,0.40
2023-02-01T01:35:09.890Z,0.40
2023-02-01T01:36:10.781Z,0.50
2023-02-01T01:37:11.648Z,0.50
2023-02-01T01:38:12.540Z,0.50
2023-02-01T01:39:13.429Z,0.40
2023-02-01T01:40:14.296Z,0.50
2023-02-01T01:41:15.178Z,0.40
2023-02-01T01:42:16.062Z,0.50
2023-02-01T01:43:16.936Z,0.40
2023-02-01T01:44:17.816Z,0.50
2023-02-01T01:45:18.723Z,0.40
2023-02-01T01:46:19.619Z,0.50
2023-02-01T01:47:20.480Z,0.60
2023-02-01T01:48:21.362Z,0.50
2023-02-01T01:49:22.235Z,0.50
2023-02-01T01:50:23.625Z,0.50
2023-02-01T01:51:23.708Z,0.70
2023-02-01T01:52:24.599Z,0.80
2023-02-01T01:53:25.470Z,0.90
2023-02-01T01:54:26.371Z,0.90
2023-02-01T01:55:27.232Z,0.90
2023-02-01T01:56:28.118Z,1.00
2023-02-01T01:57:28.996Z,0.80
2023-02-01T01:58:29.888Z,2.20
2023-02-01T01:59:30.756Z,1.60
2023-02-01T02:00:31.673Z,0.80
2023-02-01T02:01:32.534Z,0.70
2023-02-01T02:02:33.407Z,0.60
2023-02-01T02:03:34.281Z,0.50
2023-02-01T02:04:35.170Z,0.60
2023-02-01T02:05:36.056Z,0.50
2023-02-01T02:06:36.937Z,0.60
2023-02-01T02:07:37.821Z,0.50
2023-02-01T02:08:38.702Z,0.50
2023-02-01T02:09:41.288Z,0.40
2023-02-01T02:10:40.521Z,0.40
2023-02-01T02:11:41.395Z,0.40
2023-02-01T02:12:42.277Z,0.50
2023-02-01T02:13:43.165Z,0.40
2023-02-01T02:14:44.042Z,0.40
2023-02-01T02:15:44.927Z,0.40
2023-02-01T02:16:45.826Z,0.40
2023-02-01T02:17:46.691Z,0.30
2023-02-01T02:18:47.572Z,0.40
2023-02-01T02:19:48.452Z,0.60
2023-02-01T02:20:49.345Z,0.50
2023-02-01T02:21:50.229Z,0.40
2023-02-01T02:22:51.109Z,0.40
2023-02-01T02:23:52.000Z,0.40
2023-02-01T02:24:52.898Z,0.30
2023-02-01T02:25:53.768Z,0.50
2023-02-01T02:26:54.645Z,0.50
2023-02-01T02:27:55.531Z,0.40
2023-02-01T02:28:56.417Z,0.40
2023-02-01T02:29:57.297Z,0.40
2023-02-01T02:30:58.277Z,0.40
2023-02-01T02:31:59.123Z,0.40
2023-02-01T02:33:00.006Z,0.50
2023-02-01T02:34:00.888Z,0.60
2023-02-01T02:35:01.795Z,0.60
2023-02-01T02:36:02.668Z,0.60
2023-02-01T02:37:03.551Z,0.90
2023-02-01T02:38:04.435Z,0.50
2023-02-01T02:39:05.326Z,0.70
2023-02-01T02:40:06.229Z,0.70
2023-02-01T02:41:07.095Z,0.60
2023-02-01T02:42:07.974Z,0.60
2023-02-01T02:43:08.844Z,0.60
2023-02-01T02:44:09.723Z,0.60
2023-02-01T02:45:10.597Z,0.60
2023-02-01T02:46:11.568Z,0.70
2023-02-01T02:47:12.398Z,0.60
2023-02-01T02:48:13.278Z,0.50
2023-02-01T02:49:14.159Z,0.50
2023-02-01T02:50:15.039Z,0.50
2023-02-01T02:51:15.922Z,0.40
2023-02-01T02:52:16.801Z,0.50
2023-02-01T02:53:17.706Z,0.50
2023-02-01T02:54:18.572Z,0.50
2023-02-01T02:55:19.467Z,0.50
2023-02-01T02:56:20.335Z,0.50
2023-02-01T02:57:21.217Z,0.50
2023-02-01T02:58:22.096Z,0.60
2023-02-01T02:59:22.982Z,0.50
2023-02-01T03:00:24.301Z,0.40
2023-02-01T03:01:24.912Z,0.50
2023-02-01T03:02:25.808Z,0.60
2023-02-01T03:03:26.650Z,0.60
2023-02-01T03:04:27.557Z,0.60
2023-02-01T03:05:28.408Z,0.50
2023-02-01T03:06:29.303Z,0.50
2023-02-01T03:07:30.173Z,0.50
2023-02-01T03:08:31.056Z,0.50
2023-02-01T03:09:31.938Z,0.50
2023-02-01T03:10:32.846Z,0.40
2023-02-01T03:11:33.723Z,0.40
2023-02-01T03:12:34.606Z,0.40
2023-02-01T03:13:35.478Z,0.50
2023-02-01T03:14:36.367Z,0.50
2023-02-01T03:15:37.242Z,0.40
2023-02-01T03:16:38.214Z,0.50
2023-02-01T03:17:39.060Z,0.70
2023-02-01T03:18:39.960Z,0.60
2023-02-01T03:19:40.816Z,0.70
2023-02-01T03:20:41.703Z,0.60
2023-02-01T03:21:42.600Z,0.80
2023-02-01T03:22:43.476Z,0.60
2023-02-01T03:23:44.350Z,0.40
2023-02-01T03:24:45.233Z,0.60
2023-02-01T03:25:46.142Z,0.50
2023-02-01T03:26:47.080Z,0.60
2023-02-01T03:27:47.916Z,0.50
2023-02-01T03:28:48.789Z,0.50
2023-02-01T03:29:49.660Z,0.60
2023-02-01T03:30:50.556Z,0.70
2023-02-01T03:31:51.487Z,0.50
2023-02-01T03:32:52.331Z,0.50
2023-02-01T03:33:53.216Z,0.50
2023-02-01T03:34:54.098Z,0.50
2023-02-01T03:35:54.984Z,0.70
2023-02-01T03:36:55.867Z,0.80
2023-02-01T03:37:56.746Z,0.50
2023-02-01T03:38:57.627Z,0.50
2023-02-01T03:39:58.515Z,0.50
2023-02-01T03:40:59.415Z,0.50
2023-02-01T03:42:00.276Z,0.50
2023-02-01T03:43:01.162Z,0.60
2023-02-01T03:44:02.047Z,0.60
2023-02-01T03:45:02.929Z,0.60
2023-02-01T03:46:03.840Z,0.60
2023-02-01T03:47:04.707Z,0.70
2023-02-01T03:48:05.577Z,0.60
2023-02-01T03:49:06.462Z,0.60
2023-02-01T03:50:07.337Z,0.60
2023-02-01T03:51:08.215Z,0.60
2023-02-01T03:52:09.230Z,0.50
2023-02-01T03:53:09.589Z,0.60
2023-02-01T03:54:10.477Z,0.50
2023-02-01T03:55:11.356Z,0.70
2023-02-01T03:56:12.258Z,0.50
2023-02-01T03:57:13.125Z,0.60
2023-02-01T03:58:13.998Z,0.60
2023-02-01T03:59:14.881Z,0.70
2023-02-01T04:00:15.763Z,0.50
2023-02-01T04:01:16.731Z,0.60
2023-02-01T04:02:17.594Z,0.50
2023-02-01T04:03:18.455Z,0.70
2023-02-01T04:04:19.326Z,0.50
2023-02-01T04:05:20.219Z,0.50
2023-02-01T04:06:21.083Z,0.50
2023-02-01T04:07:21.982Z,0.50
2023-02-01T04:08:22.860Z,0.60
2023-02-01T04:09:23.740Z,0.60
2023-02-01T04:10:25.017Z,0.50
2023-02-01T04:11:25.570Z,0.70
2023-02-01T04:12:26.441Z,0.60
2023-02-01T04:13:27.322Z,0.60
2023-02-01T04:14:28.205Z,0.60
2023-02-01T04:15:29.092Z,0.60
2023-02-01T04:16:29.996Z,0.60
2023-02-01T04:17:30.862Z,0.50
2023-02-01T04:18:31.729Z,0.60
2023-02-01T04:19:32.617Z,0.60
2023-02-01T04:20:33.494Z,0.60
2023-02-01T04:21:34.369Z,0.70
2023-02-01T04:22:35.268Z,0.70
2023-02-01T04:23:36.146Z,0.60
2023-02-01T04:24:37.020Z,0.60
2023-02-01T04:25:37.905Z,0.50
2023-02-01T04:26:38.852Z,0.50
2023-02-01T04:27:40.755Z,0.60
2023-02-01T04:28:40.637Z,0.60
2023-02-01T04:29:41.510Z,0.60
2023-02-01T04:30:42.542Z,0.60
2023-02-01T04:31:43.087Z,0.70
2023-02-01T04:32:43.528Z,0.50
2023-02-01T04:33:44.399Z,0.90
2023-02-01T04:34:45.277Z,0.60
2023-02-01T04:35:46.186Z,0.70
2023-02-01T04:36:47.446Z,0.50
2023-02-01T04:37:47.811Z,0.70
2023-02-01T04:38:48.693Z,0.60
2023-02-01T04:39:49.567Z,0.60
2023-02-01T04:40:50.454Z,0.60
2023-02-01T04:41:51.369Z,0.60
2023-02-01T04:42:52.226Z,0.60
2023-02-01T04:43:53.110Z,0.90
2023-02-01T04:44:53.993Z,0.60
2023-02-01T04:45:54.919Z,0.60
2023-02-01T04:46:55.758Z,0.60
2023-02-01T04:47:56.656Z,0.70
2023-02-01T04:48:57.541Z,1.10
2023-02-01T04:49:58.412Z,1.00
2023-02-01T04:50:59.294Z,0.80
2023-02-01T04:52:00.179Z,1.40
2023-02-01T04:53:01.069Z,3.20
2023-02-01T04:54:01.944Z,3.60
2023-02-01T04:55:02.840Z,2.70
2023-02-01T04:56:03.715Z,2.30
2023-02-01T04:57:04.620Z,2.10
2023-02-01T04:58:05.480Z,1.70
2023-02-01T04:59:06.368Z,2.30
2023-02-01T05:00:07.236Z,1.70
2023-02-01T05:01:08.159Z,1.70
2023-02-01T05:02:09.004Z,1.40
2023-02-01T05:03:09.895Z,1.00
2023-02-01T05:04:10.780Z,0.80
2023-02-01T05:05:11.665Z,1.00
2023-02-01T05:06:12.545Z,1.00
2023-02-01T05:07:13.428Z,1.00
2023-02-01T05:08:14.322Z,0.90
2023-02-01T05:09:15.193Z,1.00
2023-02-01T05:10:16.078Z,0.90
2023-02-01T05:11:16.961Z,0.70
2023-02-01T05:12:17.859Z,0.80
2023-02-01T05:13:18.731Z,0.80
2023-02-01T05:14:19.611Z,0.80
2023-02-01T05:15:20.490Z,0.70
2023-02-01T05:16:21.378Z,0.80
2023-02-01T05:17:22.253Z,0.60
2023-02-01T05:18:23.138Z,0.60
2023-02-01T05:19:24.028Z,0.60
2023-02-01T05:20:25.143Z,0.60
2023-02-01T05:21:25.539Z,0.70
2023-02-01T05:22:26.420Z,0.80
2023-02-01T05:23:27.315Z,0.70
2023-02-01T05:24:28.189Z,0.60
2023-02-01T05:25:29.071Z,0.60
2023-02-01T05:26:30.048Z,1.30
2023-02-01T05:27:30.900Z,2.90
2023-02-01T05:28:31.760Z,1.40
2023-02-01T05:29:32.660Z,3.50
2023-02-01T05:30:33.595Z,1.00
2023-02-01T05:31:34.598Z,2.00
2023-02-01T05:32:35.020Z,0.90
2023-02-01T05:33:35.899Z,0.80
2023-02-01T05:34:36.770Z,0.70
2023-02-01T05:35:37.655Z,0.90
2023-02-01T05:36:38.551Z,0.70
2023-02-01T05:37:39.420Z,0.80
2023-02-01T05:38:40.317Z,0.60
2023-02-01T05:39:41.199Z,0.50
2023-02-01T05:40:42.087Z,0.60
2023-02-01T05:41:42.966Z,0.50
2023-02-01T05:42:43.865Z,0.70
2023-02-01T05:43:44.733Z,0.70
2023-02-01T05:44:45.608Z,0.60
2023-02-01T05:45:46.489Z,0.70
2023-02-01T05:46:50.010Z,1.00
2023-02-01T05:47:47.979Z,2.40
2023-02-01T05:48:48.880Z,1.10
2023-02-01T05:49:49.755Z,0.80
2023-02-01T05:50:50.639Z,0.80
2023-02-01T05:51:51.521Z,0.80
2023-02-01T05:52:52.406Z,1.50
2023-02-01T05:53:53.299Z,1.20
2023-02-01T05:54:54.173Z,1.20
2023-02-01T05:55:55.055Z,0.90
2023-02-01T05:56:55.955Z,0.90
2023-02-01T05:57:56.837Z,1.20
2023-02-01T05:58:57.705Z,1.70
2023-02-01T06:00:00.331Z,1.60
2023-02-01T06:00:59.273Z,1.30
2023-02-01T06:02:00.153Z,0.90
2023-02-01T06:03:01.072Z,0.80
2023-02-01T06:04:01.950Z,0.80
2023-02-01T06:05:02.804Z,1.60
2023-02-01T06:06:03.684Z,2.00
2023-02-01T06:07:04.557Z,1.00
2023-02-01T06:08:05.440Z,0.90
2023-02-01T06:09:06.332Z,0.70
2023-02-01T06:10:07.227Z,0.80
2023-02-01T06:11:08.093Z,1.20
2023-02-01T06:12:08.974Z,1.10
2023-02-01T06:13:09.875Z,1.20
2023-02-01T06:14:10.740Z,1.30
2023-02-01T06:15:11.625Z,1.40
2023-02-01T06:16:12.614Z,1.40
2023-02-01T06:17:13.452Z,1.60
2023-02-01T06:18:14.337Z,1.40
2023-02-01T06:19:15.227Z,0.80
2023-02-01T06:20:16.135Z,0.80
2023-02-01T06:21:16.994Z,1.30
2023-02-01T06:22:17.835Z,1.50
2023-02-01T06:23:18.652Z,1.40
2023-02-01T06:24:19.502Z,1.10
2023-02-01T06:25:20.377Z,1.40
2023-02-01T06:26:21.370Z,1.20
2023-02-01T06:27:22.226Z,1.20
2023-02-01T06:28:23.137Z,1.40
2023-02-01T06:29:24.004Z,1.40
2023-02-01T06:30:25.317Z,1.20
2023-02-01T06:31:25.979Z,1.40
2023-02-01T06:32:26.802Z,2.00
2023-02-01T06:33:27.619Z,1.80
2023-02-01T06:34:28.459Z,1.30
2023-02-01T06:35:29.290Z,1.40
2023-02-01T06:36:30.118Z,1.30
2023-02-01T06:37:30.935Z,1.20
2023-02-01T06:38:31.763Z,1.30
2023-02-01T06:39:32.603Z,1.30
2023-02-01T06:40:33.449Z,1.50
2023-02-01T06:41:34.264Z,1.30
2023-02-01T06:42:35.091Z,1.30
2023-02-01T06:43:35.999Z,1.30
2023-02-01T06:44:36.761Z,1.40
2023-02-01T06:45:37.591Z,1.50
2023-02-01T06:46:38.449Z,1.50
2023-02-01T06:47:39.258Z,1.30
2023-02-01T06:48:40.082Z,1.40
2023-02-01T06:49:40.926Z,1.30
2023-02-01T06:50:41.754Z,1.10
2023-02-01T06:51:42.584Z,1.60
2023-02-01T06:52:43.406Z,1.20
2023-02-01T06:53:44.234Z,1.30
2023-02-01T06:54:45.087Z,1.30
2023-02-01T06:55:45.907Z,1.10
2023-02-01T06:56:46.752Z,1.40
2023-02-01T06:57:47.570Z,0.90
2023-02-01T06:58:48.427Z,1.00
2023-02-01T06:59:49.238Z,1.10
2023-02-01T07:00:50.094Z,1.10
2023-02-01T07:01:50.912Z,1.20
2023-02-01T07:02:51.724Z,0.90
2023-02-01T07:03:52.548Z,1.20
2023-02-01T07:04:53.388Z,1.00
2023-02-01T07:05:54.215Z,1.00
2023-02-01T07:06:55.045Z,1.10
2023-02-01T07:07:55.879Z,1.00
2023-02-01T07:08:56.706Z,1.00
2023-02-01T07:09:57.559Z,0.90
2023-02-01T07:10:58.363Z,1.00
2023-02-01T07:11:59.191Z,0.80
2023-02-01T07:13:00.025Z,0.80
2023-02-01T07:14:00.880Z,1.20
2023-02-01T07:15:01.694Z,1.50
2023-02-01T07:16:02.619Z,1.70
2023-02-01T07:17:03.394Z,1.70
2023-02-01T07:18:04.231Z,1.50
2023-02-01T07:19:05.046Z,1.70
2023-02-01T07:20:05.885Z,1.60
2023-02-01T07:21:06.721Z,1.60
2023-02-01T07:22:07.542Z,2.10
2023-02-01T07:23:08.366Z,2.00
2023-02-01T07:24:09.194Z,1.70
2023-02-01T07:25:10.031Z,2.20
2023-02-01T07:26:10.861Z,1.60
2023-02-01T07:27:11.683Z,1.90
2023-02-01T07:28:12.512Z,1.70
2023-02-01T07:29:13.355Z,2.30
2023-02-01T07:30:14.192Z,2.80
2023-02-01T07:31:15.001Z,2.30
2023-02-01T07:32:15.850Z,2.20
2023-02-01T07:33:16.660Z,2.60
2023-02-01T07:34:17.489Z,2.20
2023-02-01T07:35:18.320Z,2.00
2023-02-01T07:36:19.146Z,1.80
2023-02-01T07:37:19.969Z,2.10
2023-02-01T07:38:20.799Z,2.10
2023-02-01T07:39:21.635Z,1.80
2023-02-01T07:40:22.747Z,1.80
2023-02-01T07:41:23.122Z,1.90
2023-02-01T07:42:23.948Z,2.00
2023-02-01T07:43:24.772Z,2.00
2023-02-01T07:44:25.721Z,2.30
2023-02-01T07:45:26.495Z,2.40
2023-02-01T07:46:27.343Z,2.40
2023-02-01T07:47:28.155Z,2.40
2023-02-01T07:48:28.988Z,2.80
2023-02-01T07:49:29.816Z,2.70
2023-02-01T07:50:30.668Z,3.10
2023-02-01T07:51:31.496Z,3.50
2023-02-01T07:52:32.326Z,3.10
2023-02-01T07:53:33.146Z,3.80
2023-02-01T07:54:33.977Z,5.20
2023-02-01T07:55:34.815Z,8.40
2023-02-01T07:56:35.645Z,3.10
2023-02-01T07:57:36.470Z,2.20
2023-02-01T07:58:37.295Z,3.50
2023-02-01T07:59:38.147Z,3.70
2023-02-01T08:00:38.985Z,4.60
2023-02-01T08:01:39.796Z,4.70
2023-02-01T08:02:40.624Z,7.70
2023-02-01T08:03:41.442Z,5.10
2023-02-01T08:04:42.269Z,3.40
2023-02-01T08:05:43.113Z,2.90
2023-02-01T08:06:43.938Z,2.80
2023-02-01T08:07:44.764Z,4.70
2023-02-01T08:08:45.594Z,4.10
2023-02-01T08:09:46.422Z,3.50
2023-02-01T08:10:47.260Z,4.20
2023-02-01T08:11:48.099Z,2.90
2023-02-01T08:12:48.919Z,1.20
2023-02-01T08:13:49.742Z,1.20
2023-02-01T08:14:50.599Z,1.50
2023-02-01T08:15:51.410Z,1.50
2023-02-01T08:16:52.348Z,1.30
2023-02-01T08:17:53.199Z,1.60
2023-02-01T08:18:54.020Z,1.80
2023-02-01T08:19:54.850Z,2.00
2023-02-01T08:20:55.705Z,1.90
2023-02-01T08:21:56.547Z,2.30
2023-02-01T08:22:57.359Z,2.80
2023-02-01T08:23:58.189Z,2.40
2023-02-01T08:24:59.018Z,2.40
2023-02-01T08:25:59.851Z,5.40
2023-02-01T08:27:00.682Z,4.50
2023-02-01T08:28:01.512Z,4.10
2023-02-01T08:29:02.341Z,3.30
2023-02-01T08:30:03.200Z,2.80
2023-02-01T08:31:04.033Z,2.60
2023-02-01T08:32:04.881Z,2.50
2023-02-01T08:33:05.679Z,2.20
2023-02-01T08:34:06.509Z,2.70
2023-02-01T08:35:07.344Z,2.90
2023-02-01T08:36:08.163Z,3.10
2023-02-01T08:37:08.994Z,2.90
2023-02-01T08:38:09.829Z,2.30
2023-02-01T08:39:10.654Z,3.50
2023-02-01T08:40:11.478Z,2.30
2023-02-01T08:41:12.322Z,2.10
2023-02-01T08:42:13.152Z,2.30
2023-02-01T08:43:13.979Z,2.20
2023-02-01T08:44:14.807Z,3.10
2023-02-01T08:45:15.661Z,2.20
2023-02-01T08:46:16.483Z,1.80
2023-02-01T08:47:17.309Z,0.90
2023-02-01T08:48:18.136Z,1.10
2023-02-01T08:49:18.972Z,1.30
2023-02-01T08:50:19.785Z,1.60
2023-02-01T08:51:20.631Z,2.40
2023-02-01T08:52:21.463Z,2.10
2023-02-01T08:53:22.321Z,1.70
2023-02-01T08:54:23.142Z,4.20
2023-02-01T08:55:23.973Z,3.00
2023-02-01T08:56:24.988Z,1.60
2023-02-01T08:57:25.784Z,1.10
2023-02-01T08:58:26.618Z,1.70
2023-02-01T08:59:29.516Z,1.70
2023-02-01T09:00:28.046Z,1.50
2023-02-01T09:01:28.981Z,1.00
2023-02-01T09:02:29.786Z,0.80
2023-02-01T09:03:30.620Z,1.50
2023-02-01T09:04:31.479Z,1.50
2023-02-01T09:05:47.545Z,1.40
2023-02-01T09:06:33.996Z,1.50
2023-02-01T09:07:33.831Z,1.40
2023-02-01T09:08:34.656Z,1.60
2023-02-01T09:09:35.484Z,1.40
2023-02-01T09:10:36.955Z,1.30
2023-02-01T09:11:37.026Z,1.50
2023-02-01T09:12:37.860Z,11.00
2023-02-01T09:13:38.692Z,10.40
2023-02-01T09:14:39.542Z,8.30
2023-02-01T09:15:40.460Z,6.70
2023-02-01T09:16:41.261Z,3.20
2023-02-01T09:17:42.119Z,2.30
2023-02-01T09:18:55.372Z,1.40
2023-02-01T09:19:44.626Z,1.20
2023-02-01T09:20:44.454Z,1.10
2023-02-01T09:21:45.290Z,1.20
2023-02-01T09:22:46.115Z,1.10
2023-02-01T09:23:46.938Z,1.10
2023-02-01T09:24:47.782Z,0.90
2023-02-01T09:25:48.598Z,1.10
2023-02-01T09:26:49.475Z,1.10
2023-02-01T09:27:50.266Z,1.30
2023-02-01T09:28:51.099Z,1.30
2023-02-01T09:29:51.928Z,1.10
2023-02-01T09:30:52.857Z,1.20
2023-02-01T09:32:03.298Z,1.00
2023-02-01T09:32:55.405Z,1.10
2023-02-01T09:33:55.250Z,1.10
2023-02-01T09:34:56.068Z,1.00
2023-02-01T09:35:56.890Z,1.30
2023-02-01T09:36:57.731Z,1.20
2023-02-01T09:37:58.565Z,1.20
2023-02-01T09:38:59.418Z,2.50
2023-02-01T09:40:00.236Z,1.40
2023-02-01T09:41:01.062Z,1.00
2023-02-01T09:42:01.894Z,1.10
2023-02-01T09:43:02.714Z,1.10
2023-02-01T09:44:03.542Z,0.90
2023-02-01T09:45:04.364Z,0.90
2023-02-01T09:46:05.320Z,0.90
2023-02-01T09:47:06.121Z,1.00
2023-02-01T09:48:06.602Z,1.00
2023-02-01T09:49:07.424Z,0.70
2023-02-01T09:50:08.257Z,2.00
2023-02-01T09:51:09.107Z,6.20
2023-02-01T09:52:09.925Z,1.60
2023-02-01T09:53:10.763Z,1.10
2023-02-01T09:54:11.583Z,0.70
2023-02-01T09:55:12.411Z,1.00
2023-02-01T09:56:13.240Z,1.90
2023-02-01T09:57:14.066Z,1.70
2023-02-01T09:58:14.902Z,1.80
2023-02-01T09:59:15.742Z,1.70
2023-02-01T10:00:16.570Z,1.60
2023-02-01T10:01:17.484Z,1.90
2023-02-01T10:02:18.288Z,2.20
2023-02-01T10:03:19.151Z,1.60
2023-02-01T10:04:19.959Z,3.10
2023-02-01T10:05:20.786Z,2.80
2023-02-01T10:06:21.615Z,6.80
2023-02-01T10:07:22.448Z,3.90
2023-02-01T10:08:23.273Z,2.50
2023-02-01T10:09:24.094Z,1.50
2023-02-01T10:10:25.354Z,1.00
2023-02-01T10:11:25.898Z,1.00
2023-02-01T10:12:26.740Z,0.90
2023-02-01T10:13:27.560Z,1.00
2023-02-01T10:14:28.387Z,1.10
2023-02-01T10:15:29.209Z,1.10
2023-02-01T10:16:30.232Z,1.60
2023-02-01T10:17:30.587Z,1.00
2023-02-01T10:18:31.405Z,0.90
2023-02-01T10:19:32.242Z,0.80
2023-02-01T10:20:33.057Z,0.70
2023-02-01T10:21:33.877Z,0.70
2023-02-01T10:22:59.016Z,0.60
2023-02-01T10:23:36.455Z,0.60
2023-02-01T10:24:36.263Z,0.50
2023-02-01T10:25:37.102Z,0.70
2023-02-01T10:26:37.955Z,0.60
2023-02-01T10:27:38.782Z,0.80
2023-02-01T10:28:39.581Z,0.60
2023-02-01T10:29:40.407Z,0.50
2023-02-01T10:30:41.294Z,0.60
2023-02-01T10:31:42.249Z,0.50
2023-02-01T10:32:43.040Z,0.80
2023-02-01T10:33:43.880Z,0.70
2023-02-01T10:34:44.701Z,0.70
2023-02-01T10:35:45.554Z,0.60
2023-02-01T10:36:46.381Z,0.80
2023-02-01T10:37:47.223Z,0.90
2023-02-01T10:38:48.066Z,0.80
2023-02-01T10:39:48.883Z,0.60
2023-02-01T10:40:49.715Z,0.60
2023-02-01T10:41:50.548Z,0.70
2023-02-01T10:42:51.386Z,0.80
2023-02-01T10:43:52.210Z,0.60
2023-02-01T10:44:53.039Z,0.50
2023-02-01T10:45:53.877Z,0.60
2023-02-01T10:46:54.739Z,0.70
2023-02-01T10:47:55.540Z,0.80
2023-02-01T10:48:56.378Z,0.70
2023-02-01T10:49:57.201Z,0.60
2023-02-01T10:50:58.049Z,0.60
2023-02-01T10:51:58.860Z,0.40
2023-02-01T10:52:59.703Z,0.60
2023-02-01T10:54:00.531Z,0.70
2023-02-01T10:55:01.366Z,0.60
2023-02-01T10:56:02.201Z,0.60
2023-02-01T10:57:03.031Z,0.70
2023-02-01T10:58:03.864Z,0.70
2023-02-01T10:59:04.689Z,0.60
2023-02-01T11:00:05.523Z,0.60
2023-02-01T11:01:06.349Z,0.70
2023-02-01T11:02:07.254Z,0.70
2023-02-01T11:03:08.056Z,0.80
2023-02-01T11:04:08.870Z,0.90
2023-02-01T11:05:09.707Z,1.10
2023-02-01T11:06:10.559Z,1.20
2023-02-01T11:07:11.412Z,1.20
2023-02-01T11:08:12.232Z,1.20
2023-02-01T11:09:13.064Z,1.00
2023-02-01T11:10:13.894Z,1.30
2023-02-01T11:11:14.712Z,1.20
2023-02-01T11:12:15.540Z,1.10
2023-02-01T11:13:16.382Z,2.20
2023-02-01T11:14:17.216Z,4.00
2023-02-01T11:15:18.042Z,2.90
2023-02-01T11:16:18.920Z,3.40
2023-02-01T11:17:19.723Z,2.00
2023-02-01T11:18:20.553Z,1.70
2023-02-01T11:19:21.366Z,4.20
2023-02-01T11:20:22.193Z,2.30
2023-02-01T11:21:23.017Z,0.90
2023-02-01T11:22:23.850Z,0.80
2023-02-01T11:23:24.697Z,0.90
2023-02-01T11:24:25.526Z,0.70
2023-02-01T11:25:26.771Z,0.70
2023-02-01T11:26:27.382Z,0.70
2023-02-01T11:27:28.283Z,1.00
2023-02-01T11:28:29.058Z,1.10
2023-02-01T11:29:29.899Z,0.80
2023-02-01T11:30:30.734Z,0.70
2023-02-01T11:31:31.587Z,0.80
2023-02-01T11:32:32.451Z,0.80
2023-02-01T11:33:33.238Z,0.70
2023-02-01T11:34:34.073Z,0.80
2023-02-01T11:35:34.919Z,0.60
2023-02-01T11:36:35.728Z,0.50
2023-02-01T11:37:36.558Z,0.50
2023-02-01T11:38:37.404Z,0.60
2023-02-01T11:39:38.227Z,0.60
2023-02-01T11:40:39.054Z,0.60
2023-02-01T11:41:39.887Z,0.40
2023-02-01T11:42:40.717Z,0.60
2023-02-01T11:43:41.556Z,0.60
2023-02-01T11:44:42.387Z,0.60
2023-02-01T11:45:43.236Z,0.50
2023-02-01T11:46:44.124Z,0.40
2023-02-01T11:47:44.915Z,0.50
2023-02-01T11:48:45.735Z,0.50
2023-02-01T11:49:46.567Z,0.60
2023-02-01T11:50:47.399Z,0.50
2023-02-01T11:51:48.229Z,0.50
2023-02-01T11:52:49.099Z,0.60
2023-02-01T11:53:49.934Z,0.60
2023-02-01T11:54:50.787Z,0.50
2023-02-01T11:55:51.596Z,0.50
2023-02-01T11:56:52.430Z,0.50
2023-02-01T11:57:53.247Z,0.50
2023-02-01T11:58:54.087Z,0.60
2023-02-01T11:59:57.206Z,0.90
2023-02-01T12:00:55.625Z,0.70
2023-02-01T12:01:56.541Z,0.70
2023-02-01T12:02:57.376Z,0.40
2023-02-01T12:03:58.173Z,0.90
2023-02-01T12:04:58.997Z,0.90
2023-02-01T12:05:59.825Z,1.40
2023-02-01T12:07:00.650Z,0.70
2023-02-01T12:08:01.482Z,0.70
2023-02-01T12:09:02.320Z,0.60
2023-02-01T12:10:03.152Z,0.90
2023-02-01T12:11:03.984Z,0.60
2023-02-01T12:12:04.829Z,0.60
2023-02-01T12:13:05.649Z,0.70
2023-02-01T12:14:06.498Z,0.50
2023-02-01T12:15:07.324Z,0.60
2023-02-01T12:16:08.299Z,0.60
2023-02-01T12:17:09.103Z,0.90
2023-02-01T12:18:09.964Z,0.80
2023-02-01T12:19:10.773Z,0.90
2023-02-01T12:20:11.604Z,0.80
2023-02-01T12:21:12.433Z,1.30
2023-02-01T12:22:13.258Z,1.60
2023-02-01T12:23:14.089Z,1.40
2023-02-01T12:24:14.917Z,1.60
2023-02-01T12:25:15.747Z,1.50
2023-02-01T12:26:18.558Z,0.70
2023-02-01T12:27:17.431Z,0.90
2023-02-01T12:28:18.256Z,0.90
2023-02-01T12:29:19.098Z,0.90
2023-02-01T12:30:19.930Z,0.80
2023-02-01T12:31:20.781Z,0.80
2023-02-01T12:32:21.580Z,0.70
2023-02-01T12:33:22.428Z,0.60
2023-02-01T12:34:23.251Z,0.70
2023-02-01T12:35:24.076Z,1.70
2023-02-01T12:36:24.908Z,1.40
2023-02-01T12:37:25.735Z,2.00
2023-02-01T12:38:26.567Z,1.50
2023-02-01T12:39:27.406Z,0.80
2023-02-01T12:40:28.224Z,0.50
2023-02-01T12:41:29.061Z,5.70
2023-02-01T12:42:29.892Z,9.50
2023-02-01T12:43:30.732Z,10.70
2023-02-01T12:44:31.544Z,3.50
2023-02-01T12:45:32.460Z,1.40
2023-02-01T12:46:33.265Z,1.50
2023-02-01T12:47:34.089Z,12.00
2023-02-01T12:48:34.944Z,33.50
2023-02-01T12:49:35.764Z,16.60
2023-02-01T12:50:36.601Z,9.80
2023-02-01T12:51:37.424Z,1.40
2023-02-01T12:52:38.258Z,1.10
2023-02-01T12:53:39.082Z,1.00
2023-02-01T12:54:39.912Z,0.80
2023-02-01T12:55:40.737Z,0.60
2023-02-01T12:56:41.582Z,0.60
2023-02-01T12:57:42.398Z,0.60
2023-02-01T12:58:43.238Z,0.50
2023-02-01T12:59:44.097Z,0.60
2023-02-01T13:00:44.926Z,0.80
2023-02-01T13:01:47.512Z,1.00
2023-02-01T13:02:46.489Z,0.80
2023-02-01T13:03:47.333Z,0.70
2023-02-01T13:04:48.150Z,1.40
2023-02-01T13:05:48.977Z,4.90
2023-02-01T13:06:49.805Z,6.30
2023-02-01T13:07:50.631Z,7.30
2023-02-01T13:08:51.452Z,7.10
2023-02-01T13:09:52.306Z,3.20
2023-02-01T13:10:53.293Z,7.60
2023-02-01T13:11:54.121Z,31.20
2023-02-01T13:12:54.923Z,38.30
2023-02-01T13:13:55.738Z,26.20
2023-02-01T13:14:56.585Z,24.40
2023-02-01T13:15:57.418Z,19.10
2023-02-01T13:16:58.314Z,6.50
2023-02-01T13:17:59.123Z,4.50
2023-02-01T13:18:59.964Z,2.40
2023-02-01T13:20:00.778Z,5.00
2023-02-01T13:21:01.594Z,4.40
2023-02-01T13:22:02.427Z,2.60
2023-02-01T13:23:03.245Z,12.40
2023-02-01T13:24:04.084Z,2.90
2023-02-01T13:25:04.915Z,2.00
2023-02-01T13:26:05.738Z,5.30
2023-02-01T13:27:06.558Z,6.00
2023-02-01T13:28:07.385Z,5.70
2023-02-01T13:29:08.235Z,7.20
2023-02-01T13:30:09.063Z,7.70